sensor_id;sensor_type;location;lat;lon;timestamp;pressure;altitude;pressure_sealevel;temperature;humidity
5500;BME280;2772;42.700;23.304;2024-02-26T00:01:03;94618.50;;;11.26;100.00
5500;BME280;2772;42.700;23.304;2024-02-26T00:03:30;94616.09;;;11.33;100.00
5500;BME280;2772;42.700;23.304;2024-02-26T00:06:00;94620.63;;;11.32;100.00
5500;BME280;2772;42.700;23.304;2024-02-26T00:08:26;94613.75;;;11.31;100.00
5500;BME280;2772;42.700;23.304;2024-02-26T00:10:53;94617.38;;;11.27;100.00
5500;BME280;2772;42.700;23.304;2024-02-26T00:13:20;94617.38;;;11.27;100.00
5500;BME280;2772;42.700;23.304;2024-02-26T00:15:47;94611.88;;;11.32;100.00
5500;BME280;2772;42.700;23.304;2024-02-26T00:18:14;94617.09;;;11.19;100.00
5500;BME280;2772;42.700;23.304;2024-02-26T00:20:40;94618.94;;;11.27;100.00
5500;BME280;2772;42.700;23.304;2024-02-26T00:23:09;94619.88;;;11.32;100.00
5500;BME280;2772;42.700;23.304;2024-02-26T00:25:36;94617.88;;;11.20;100.00
5500;BME280;2772;42.700;23.304;2024-02-26T00:28:04;94604.50;;;11.29;100.00
5500;BME280;2772;42.700;23.304;2024-02-26T00:30:31;94610.75;;;11.33;100.00
5500;BME280;2772;42.700;23.304;2024-02-26T00:32:59;94603.88;;;11.32;100.00
5500;BME280;2772;42.700;23.304;2024-02-26T00:35:26;94616.09;;;11.33;100.00
5500;BME280;2772;42.700;23.304;2024-02-26T00:37:52;94615.91;;;11.38;100.00
5500;BME280;2772;42.700;23.304;2024-02-26T00:40:20;94606.72;;;11.27;100.00
5500;BME280;2772;42.700;23.304;2024-02-26T00:42:47;94609.38;;;11.27;100.00
5500;BME280;2772;42.700;23.304;2024-02-26T00:45:14;94600.44;;;11.22;100.00
5500;BME280;2772;42.700;23.304;2024-02-26T00:47:41;94609.72;;;11.16;100.00
5500;BME280;2772;42.700;23.304;2024-02-26T00:50:09;94595.31;;;11.17;100.00
5500;BME280;2772;42.700;23.304;2024-02-26T00:52:36;94603.66;;;11.37;100.00
5500;BME280;2772;42.700;23.304;2024-02-26T00:55:03;94599.28;;;11.32;100.00
5500;BME280;2772;42.700;23.304;2024-02-26T00:57:33;94595.28;;;11.47;100.00
5500;BME280;2772;42.700;23.304;2024-02-26T00:59:59;94588.84;;;11.48;100.00
5500;BME280;2772;42.700;23.304;2024-02-26T01:02:26;94581.81;;;11.43;100.00
5500;BME280;2772;42.700;23.304;2024-02-26T01:04:53;94585.94;;;11.41;100.00
5500;BME280;2772;42.700;23.304;2024-02-26T01:07:19;94590.22;;;11.33;100.00
5500;BME280;2772;42.700;23.304;2024-02-26T01:09:46;94585.22;;;11.32;100.00
5500;BME280;2772;42.700;23.304;2024-02-26T01:12:13;94584.69;;;11.09;100.00
5500;BME280;2772;42.700;23.304;2024-02-26T01:14:41;94589.22;;;11.08;100.00
5500;BME280;2772;42.700;23.304;2024-02-26T01:17:08;94581.84;;;11.14;100.00
5500;BME280;2772;42.700;23.304;2024-02-26T01:19:34;94576.19;;;11.15;100.00
5500;BME280;2772;42.700;23.304;2024-02-26T01:22:01;94578.81;;;11.24;100.00
5500;BME280;2772;42.700;23.304;2024-02-26T01:24:29;94584.66;;;11.17;100.00
5500;BME280;2772;42.700;23.304;2024-02-26T01:26:56;94581.84;;;11.14;100.00
5500;BME280;2772;42.700;23.304;2024-02-26T01:29:22;94578.38;;;11.22;100.00
5500;BME280;2772;42.700;23.304;2024-02-26T01:31:50;94573.69;;;11.19;100.00
5500;BME280;2772;42.700;23.304;2024-02-26T01:34:17;94574.72;;;11.27;100.00
5500;BME280;2772;42.700;23.304;2024-02-26T01:36:44;94568.28;;;11.27;100.00
5500;BME280;2772;42.700;23.304;2024-02-26T01:39:11;94568.75;;;11.30;100.00
5500;BME280;2772;42.700;23.304;2024-02-26T01:41:38;94568.47;;;11.22;100.00
5500;BME280;2772;42.700;23.304;2024-02-26T01:44:04;94574.97;;;11.34;100.00
5500;BME280;2772;42.700;23.304;2024-02-26T01:46:33;94562.75;;;11.33;100.00
5500;BME280;2772;42.700;23.304;2024-02-26T01:49:02;94559.00;;;11.34;100.00
5500;BME280;2772;42.700;23.304;2024-02-26T01:51:30;94562.91;;;11.36;100.00
5500;BME280;2772;42.700;23.304;2024-02-26T01:53:59;94556.38;;;11.25;100.00
5500;BME280;2772;42.700;23.304;2024-02-26T01:56:27;94564.66;;;11.32;100.00
5500;BME280;2772;42.700;23.304;2024-02-26T01:58:57;94550.56;;;11.32;100.00
5500;BME280;2772;42.700;23.304;2024-02-26T02:01:25;94549.19;;;11.26;100.00
5500;BME280;2772;42.700;23.304;2024-02-26T02:03:52;94553.53;;;11.30;100.00
5500;BME280;2772;42.700;23.304;2024-02-26T02:06:21;94552.75;;;11.30;100.00
5500;BME280;2772;42.700;23.304;2024-02-26T02:08:48;94551.19;;;11.29;100.00
5500;BME280;2772;42.700;23.304;2024-02-26T02:11:16;94550.84;;;11.09;100.00
5500;BME280;2772;42.700;23.304;2024-02-26T02:13:43;94549.41;;;11.12;100.00
5500;BME280;2772;42.700;23.304;2024-02-26T02:16:10;94546.06;;;11.23;100.00
5500;BME280;2772;42.700;23.304;2024-02-26T02:18:36;94546.53;;;11.26;100.00
5500;BME280;2772;42.700;23.304;2024-02-26T02:21:05;94554.06;;;11.23;100.00
5500;BME280;2772;42.700;23.304;2024-02-26T02:23:31;94550.66;;;11.14;100.00
5500;BME280;2772;42.700;23.304;2024-02-26T02:25:58;94555.03;;;11.19;100.00
5500;BME280;2772;42.700;23.304;2024-02-26T02:28:26;94555.66;;;11.16;100.00
5500;BME280;2772;42.700;23.304;2024-02-26T02:30:54;94555.06;;;11.10;100.00
5500;BME280;2772;42.700;23.304;2024-02-26T02:33:21;94547.78;;;10.99;100.00
5500;BME280;2772;42.700;23.304;2024-02-26T02:35:48;94547.97;;;10.85;100.00
5500;BME280;2772;42.700;23.304;2024-02-26T02:38:17;94554.44;;;10.76;100.00
5500;BME280;2772;42.700;23.304;2024-02-26T02:40:44;94548.13;;;10.89;100.00
5500;BME280;2772;42.700;23.304;2024-02-26T02:43:10;94554.56;;;10.88;100.00
5500;BME280;2772;42.700;23.304;2024-02-26T02:45:37;94553.47;;;10.89;100.00
5500;BME280;2772;42.700;23.304;2024-02-26T02:48:04;94547.06;;;10.81;100.00
5500;BME280;2772;42.700;23.304;2024-02-26T02:50:31;94561.78;;;10.79;100.00
5500;BME280;2772;42.700;23.304;2024-02-26T02:52:58;94562.28;;;10.81;100.00
5500;BME280;2772;42.700;23.304;2024-02-26T02:55:27;94564.25;;;10.92;100.00
5500;BME280;2772;42.700;23.304;2024-02-26T02:57:54;94574.78;;;10.89;100.00
5500;BME280;2772;42.700;23.304;2024-02-26T03:00:20;94575.44;;;10.77;100.00
5500;BME280;2772;42.700;23.304;2024-02-26T03:02:48;94574.38;;;10.70;100.00
5500;BME280;2772;42.700;23.304;2024-02-26T03:05:15;94564.75;;;10.86;100.00
5500;BME280;2772;42.700;23.304;2024-02-26T03:07:42;94563.53;;;10.83;100.00
5500;BME280;2772;42.700;23.304;2024-02-26T03:10:09;94556.91;;;10.89;100.00
5500;BME280;2772;42.700;23.304;2024-02-26T03:12:37;94569.13;;;10.90;100.00
5500;BME280;2772;42.700;23.304;2024-02-26T03:15:04;94576.47;;;10.93;100.00
5500;BME280;2772;42.700;23.304;2024-02-26T03:17:31;94565.34;;;10.91;100.00
5500;BME280;2772;42.700;23.304;2024-02-26T03:19:58;94564.38;;;10.96;100.00
5500;BME280;2772;42.700;23.304;2024-02-26T03:22:24;94556.63;;;11.11;100.00
5500;BME280;2772;42.700;23.304;2024-02-26T03:24:51;94557.19;;;10.96;100.00
5500;BME280;2772;42.700;23.304;2024-02-26T03:27:18;94556.09;;;10.97;100.00
5500;BME280;2772;42.700;23.304;2024-02-26T03:29:46;94547.00;;;10.98;100.00
5500;BME280;2772;42.700;23.304;2024-02-26T03:32:13;94544.41;;;11.10;100.00
5500;BME280;2772;42.700;23.304;2024-02-26T03:34:39;94541.72;;;11.10;100.00
5500;BME280;2772;42.700;23.304;2024-02-26T03:37:06;94545.69;;;11.04;100.00
5500;BME280;2772;42.700;23.304;2024-02-26T03:39:35;94537.38;;;11.06;100.00
5500;BME280;2772;42.700;23.304;2024-02-26T03:42:02;94536.88;;;11.12;100.00
5500;BME280;2772;42.700;23.304;2024-02-26T03:44:29;94547.03;;;11.19;100.00
5500;BME280;2772;42.700;23.304;2024-02-26T03:46:57;94552.47;;;11.22;100.00
5500;BME280;2772;42.700;23.304;2024-02-26T03:49:24;94545.59;;;11.21;100.00
5500;BME280;2772;42.700;23.304;2024-02-26T03:51:51;94549.91;;;11.05;100.00
5500;BME280;2772;42.700;23.304;2024-02-26T03:54:17;94546.41;;;11.13;100.00
5500;BME280;2772;42.700;23.304;2024-02-26T03:56:44;94529.44;;;11.18;100.00
5500;BME280;2772;42.700;23.304;2024-02-26T03:59:11;94537.78;;;11.16;100.00
5500;BME280;2772;42.700;23.304;2024-02-26T04:01:38;94541.09;;;11.13;100.00
5500;BME280;2772;42.700;23.304;2024-02-26T04:04:06;94537.66;;;11.13;100.00
5500;BME280;2772;42.700;23.304;2024-02-26T04:06:33;94533.56;;;11.15;100.00
5500;BME280;2772;42.700;23.304;2024-02-26T04:08:59;94529.38;;;11.06;100.00
5500;BME280;2772;42.700;23.304;2024-02-26T04:11:29;94522.38;;;11.01;100.00
5500;BME280;2772;42.700;23.304;2024-02-26T04:13:55;94524.75;;;10.94;100.00
5500;BME280;2772;42.700;23.304;2024-02-26T04:16:22;94535.59;;;10.89;100.00
5500;BME280;2772;42.700;23.304;2024-02-26T04:18:49;94525.53;;;10.95;100.00
5500;BME280;2772;42.700;23.304;2024-02-26T04:21:17;94514.69;;;11.00;100.00
5500;BME280;2772;42.700;23.304;2024-02-26T04:23:44;94512.94;;;11.04;100.00
5500;BME280;2772;42.700;23.304;2024-02-26T04:26:10;94522.72;;;10.91;100.00
5500;BME280;2772;42.700;23.304;2024-02-26T04:28:37;94522.06;;;10.94;100.00
5500;BME280;2772;42.700;23.304;2024-02-26T04:31:04;94521.75;;;10.96;100.00
5500;BME280;2772;42.700;23.304;2024-02-26T04:33:33;94513.91;;;10.99;100.00
5500;BME280;2772;42.700;23.304;2024-02-26T04:36:00;94522.22;;;10.98;100.00
5500;BME280;2772;42.700;23.304;2024-02-26T04:38:29;94525.28;;;11.08;100.00
5500;BME280;2772;42.700;23.304;2024-02-26T04:40:56;94526.97;;;10.92;100.00
5500;BME280;2772;42.700;23.304;2024-02-26T04:43:23;94533.19;;;10.96;100.00
5500;BME280;2772;42.700;23.304;2024-02-26T04:45:49;94526.47;;;10.99;100.00
5500;BME280;2772;42.700;23.304;2024-02-26T04:48:16;94531.66;;;10.95;100.00
5500;BME280;2772;42.700;23.304;2024-02-26T04:50:43;94532.84;;;11.06;100.00
5500;BME280;2772;42.700;23.304;2024-02-26T04:53:11;94529.25;;;11.02;100.00
5500;BME280;2772;42.700;23.304;2024-02-26T04:55:39;94530.34;;;11.01;100.00
5500;BME280;2772;42.700;23.304;2024-02-26T04:58:05;94542.56;;;11.02;100.00
5500;BME280;2772;42.700;23.304;2024-02-26T05:00:32;94542.13;;;11.00;100.00
5500;BME280;2772;42.700;23.304;2024-02-26T05:02:58;94538.28;;;10.89;100.00
5500;BME280;2772;42.700;23.304;2024-02-26T05:05:24;94544.50;;;10.93;100.00
5500;BME280;2772;42.700;23.304;2024-02-26T05:07:51;94537.94;;;10.91;100.00
5500;BME280;2772;42.700;23.304;2024-02-26T05:10:18;94554.91;;;10.86;100.00
5500;BME280;2772;42.700;23.304;2024-02-26T05:12:46;94558.31;;;10.87;100.00
5500;BME280;2772;42.700;23.304;2024-02-26T05:15:13;94558.47;;;10.90;100.00
5500;BME280;2772;42.700;23.304;2024-02-26T05:17:43;94555.16;;;10.93;100.00
5500;BME280;2772;42.700;23.304;2024-02-26T05:20:10;94566.94;;;10.92;100.00
5500;BME280;2772;42.700;23.304;2024-02-26T05:22:37;94579.31;;;10.88;100.00
5500;BME280;2772;42.700;23.304;2024-02-26T05:25:04;94579.31;;;10.88;100.00
5500;BME280;2772;42.700;23.304;2024-02-26T05:27:31;94583.09;;;10.87;100.00
5500;BME280;2772;42.700;23.304;2024-02-26T05:29:59;94579.19;;;10.85;100.00
5500;BME280;2772;42.700;23.304;2024-02-26T05:32:25;94584.84;;;10.75;100.00
5500;BME280;2772;42.700;23.304;2024-02-26T05:34:52;94576.28;;;10.69;100.00
5500;BME280;2772;42.700;23.304;2024-02-26T05:37:19;94598.97;;;10.75;100.00
5500;BME280;2772;42.700;23.304;2024-02-26T05:39:46;94599.09;;;10.79;100.00
5500;BME280;2772;42.700;23.304;2024-02-26T05:42:12;94604.41;;;10.87;100.00
5500;BME280;2772;42.700;23.304;2024-02-26T05:44:39;94594.13;;;10.69;100.00
5500;BME280;2772;42.700;23.304;2024-02-26T05:47:07;94585.56;;;10.55;100.00
5500;BME280;2772;42.700;23.304;2024-02-26T05:49:34;94589.78;;;10.56;100.00
5500;BME280;2772;42.700;23.304;2024-02-26T05:52:01;94589.50;;;10.49;100.00
5500;BME280;2772;42.700;23.304;2024-02-26T05:54:28;94585.63;;;10.38;100.00
5500;BME280;2772;42.700;23.304;2024-02-26T05:56:54;94586.53;;;10.42;100.00
5500;BME280;2772;42.700;23.304;2024-02-26T05:59:21;94580.47;;;10.33;100.00
5500;BME280;2772;42.700;23.304;2024-02-26T06:01:48;94587.59;;;10.49;100.00
5500;BME280;2772;42.700;23.304;2024-02-26T06:04:16;94587.13;;;10.56;100.00
5500;BME280;2772;42.700;23.304;2024-02-26T06:06:43;94592.75;;;10.63;100.00
5500;BME280;2772;42.700;23.304;2024-02-26T06:09:11;94595.69;;;10.70;100.00
5500;BME280;2772;42.700;23.304;2024-02-26T06:11:38;94601.16;;;10.73;100.00
5500;BME280;2772;42.700;23.304;2024-02-26T06:14:04;94604.19;;;10.55;100.00
5500;BME280;2772;42.700;23.304;2024-02-26T06:16:31;94594.63;;;10.62;100.00
5500;BME280;2772;42.700;23.304;2024-02-26T06:18:58;94603.81;;;10.73;100.00
5500;BME280;2772;42.700;23.304;2024-02-26T06:21:27;94595.66;;;10.78;100.00
5500;BME280;2772;42.700;23.304;2024-02-26T06:23:54;94598.44;;;10.90;100.00
5500;BME280;2772;42.700;23.304;2024-02-26T06:26:21;94594.38;;;10.84;100.00
5500;BME280;2772;42.700;23.304;2024-02-26T06:28:47;94600.59;;;10.97;100.00
5500;BME280;2772;42.700;23.304;2024-02-26T06:31:14;94604.97;;;11.01;100.00
5500;BME280;2772;42.700;23.304;2024-02-26T06:33:41;94599.78;;;11.05;100.00
5500;BME280;2772;42.700;23.304;2024-02-26T06:36:07;94606.31;;;11.16;100.00
5500;BME280;2772;42.700;23.304;2024-02-26T06:38:36;94609.94;;;11.11;100.00
5500;BME280;2772;42.700;23.304;2024-02-26T06:41:02;94610.69;;;11.12;100.00
5500;BME280;2772;42.700;23.304;2024-02-26T06:43:29;94608.03;;;11.12;100.00
5500;BME280;2772;42.700;23.304;2024-02-26T06:45:56;94610.84;;;11.15;100.00
5500;BME280;2772;42.700;23.304;2024-02-26T06:48:23;94612.06;;;11.18;100.00
5500;BME280;2772;42.700;23.304;2024-02-26T06:50:50;94602.94;;;11.27;100.00
5500;BME280;2772;42.700;23.304;2024-02-26T06:53:17;94610.75;;;11.33;100.00
5500;BME280;2772;42.700;23.304;2024-02-26T06:55:45;94623.50;;;11.27;100.00
5500;BME280;2772;42.700;23.304;2024-02-26T06:58:11;94615.03;;;11.25;100.00
5500;BME280;2772;42.700;23.304;2024-02-26T07:00:38;94613.75;;;11.31;100.00
5500;BME280;2772;42.700;23.304;2024-02-26T07:03:05;94600.88;;;11.33;100.00
5500;BME280;2772;42.700;23.304;2024-02-26T07:05:32;94612.59;;;11.41;100.00
5500;BME280;2772;42.700;23.304;2024-02-26T07:07:58;94631.50;;;11.27;100.00
5500;BME280;2772;42.700;23.304;2024-02-26T07:10:25;94613.50;;;11.45;100.00
5500;BME280;2772;42.700;23.304;2024-02-26T07:12:53;94611.56;;;11.54;100.00
5500;BME280;2772;42.700;23.304;2024-02-26T07:15:20;94616.69;;;11.59;100.00
5500;BME280;2772;42.700;23.304;2024-02-26T07:17:47;94628.56;;;11.70;100.00
5500;BME280;2772;42.700;23.304;2024-02-26T07:20:14;94626.50;;;11.75;100.00
5500;BME280;2772;42.700;23.304;2024-02-26T07:22:43;94636.47;;;11.87;100.00
5500;BME280;2772;42.700;23.304;2024-02-26T07:25:10;94634.25;;;11.89;100.00
5500;BME280;2772;42.700;23.304;2024-02-26T07:27:38;94636.09;;;11.97;100.00
5500;BME280;2772;42.700;23.304;2024-02-26T07:30:08;94640.38;;;11.89;100.00
5500;BME280;2772;42.700;23.304;2024-02-26T07:32:35;94638.63;;;11.93;100.00
5500;BME280;2772;42.700;23.304;2024-02-26T07:35:02;94639.34;;;11.82;100.00
5500;BME280;2772;42.700;23.304;2024-02-26T07:37:28;94633.13;;;11.90;100.00
5500;BME280;2772;42.700;23.304;2024-02-26T07:39:55;94643.69;;;11.86;100.00
5500;BME280;2772;42.700;23.304;2024-02-26T07:42:23;94647.03;;;11.83;100.00
5500;BME280;2772;42.700;23.304;2024-02-26T07:44:51;94647.03;;;11.83;100.00
5500;BME280;2772;42.700;23.304;2024-02-26T07:47:19;94647.56;;;11.68;100.00
5500;BME280;2772;42.700;23.304;2024-02-26T07:49:46;94640.75;;;11.79;100.00
5500;BME280;2772;42.700;23.304;2024-02-26T07:52:13;94645.25;;;11.87;100.00
5500;BME280;2772;42.700;23.304;2024-02-26T07:54:39;94650.41;;;11.92;100.00
5500;BME280;2772;42.700;23.304;2024-02-26T07:57:06;94652.56;;;11.99;100.00
5500;BME280;2772;42.700;23.304;2024-02-26T07:59:33;94648.06;;;11.91;100.00
5500;BME280;2772;42.700;23.304;2024-02-26T08:02:00;94643.56;;;12.03;100.00
5500;BME280;2772;42.700;23.304;2024-02-26T08:04:29;94637.06;;;11.92;100.00
5500;BME280;2772;42.700;23.304;2024-02-26T08:06:56;94642.25;;;11.89;100.00
5500;BME280;2772;42.700;23.304;2024-02-26T08:09:23;94636.28;;;11.92;100.00
5500;BME280;2772;42.700;23.304;2024-02-26T08:11:49;94637.38;;;11.91;100.00
5500;BME280;2772;42.700;23.304;2024-02-26T08:14:16;94639.47;;;12.06;100.00
5500;BME280;2772;42.700;23.304;2024-02-26T08:16:43;94636.84;;;12.18;100.00
5500;BME280;2772;42.700;23.304;2024-02-26T08:19:10;94636.91;;;12.30;100.00
5500;BME280;2772;42.700;23.304;2024-02-26T08:21:41;94631.66;;;12.33;100.00
5500;BME280;2772;42.700;23.304;2024-02-26T08:24:09;94641.38;;;12.38;100.00
5500;BME280;2772;42.700;23.304;2024-02-26T08:26:36;94644.38;;;12.36;100.00
5500;BME280;2772;42.700;23.304;2024-02-26T08:29:03;94642.75;;;12.44;100.00
5500;BME280;2772;42.700;23.304;2024-02-26T08:31:30;94644.56;;;12.52;100.00
5500;BME280;2772;42.700;23.304;2024-02-26T08:33:57;94637.44;;;12.56;100.00
5500;BME280;2772;42.700;23.304;2024-02-26T08:36:24;94634.44;;;12.57;100.00
5500;BME280;2772;42.700;23.304;2024-02-26T08:38:52;94644.25;;;12.65;100.00
5500;BME280;2772;42.700;23.304;2024-02-26T08:41:19;94635.88;;;12.55;100.00
5500;BME280;2772;42.700;23.304;2024-02-26T08:43:46;94639.66;;;12.54;100.00
5500;BME280;2772;42.700;23.304;2024-02-26T08:46:13;94637.59;;;12.71;100.00
5500;BME280;2772;42.700;23.304;2024-02-26T08:48:39;94634.38;;;12.78;100.00
5500;BME280;2772;42.700;23.304;2024-02-26T08:51:07;94634.44;;;13.02;100.00
5500;BME280;2772;42.700;23.304;2024-02-26T08:53:34;94640.16;;;13.13;100.00
5500;BME280;2772;42.700;23.304;2024-02-26T08:56:02;94639.25;;;13.21;100.00
5500;BME280;2772;42.700;23.304;2024-02-26T08:58:29;94642.06;;;13.36;100.00
5500;BME280;2772;42.700;23.304;2024-02-26T09:00:56;94632.56;;;13.39;100.00
5500;BME280;2772;42.700;23.304;2024-02-26T09:03:22;94626.66;;;13.57;100.00
5500;BME280;2772;42.700;23.304;2024-02-26T09:05:49;94638.78;;;13.67;100.00
5500;BME280;2772;42.700;23.304;2024-02-26T09:08:16;94634.75;;;13.73;100.00
5500;BME280;2772;42.700;23.304;2024-02-26T09:10:43;94633.41;;;13.91;100.00
5500;BME280;2772;42.700;23.304;2024-02-26T09:13:11;94628.63;;;13.84;100.00
5500;BME280;2772;42.700;23.304;2024-02-26T09:15:37;94638.84;;;14.06;100.00
5500;BME280;2772;42.700;23.304;2024-02-26T09:18:04;94641.47;;;14.18;100.00
5500;BME280;2772;42.700;23.304;2024-02-26T09:20:31;94643.59;;;14.25;100.00
5500;BME280;2772;42.700;23.304;2024-02-26T09:22:58;94647.16;;;14.29;100.00
5500;BME280;2772;42.700;23.304;2024-02-26T09:25:24;94625.94;;;14.24;100.00
5500;BME280;2772;42.700;23.304;2024-02-26T09:27:52;94647.00;;;14.38;100.00
5500;BME280;2772;42.700;23.304;2024-02-26T09:30:20;94646.75;;;14.43;100.00
5500;BME280;2772;42.700;23.304;2024-02-26T09:32:47;94644.38;;;14.53;100.00
5500;BME280;2772;42.700;23.304;2024-02-26T09:35:14;94643.31;;;14.42;100.00
5500;BME280;2772;42.700;23.304;2024-02-26T09:37:41;94637.56;;;14.56;100.00
5500;BME280;2772;42.700;23.304;2024-02-26T09:40:10;94640.38;;;14.75;100.00
5500;BME280;2772;42.700;23.304;2024-02-26T09:42:41;94638.53;;;14.79;100.00
5500;BME280;2772;42.700;23.304;2024-02-26T09:45:11;94638.16;;;14.92;100.00
5500;BME280;2772;42.700;23.304;2024-02-26T09:47:41;94634.53;;;15.00;100.00
5500;BME280;2772;42.700;23.304;2024-02-26T09:50:09;94628.13;;;14.89;100.00
5500;BME280;2772;42.700;23.304;2024-02-26T09:52:37;94640.66;;;15.01;100.00
5500;BME280;2772;42.700;23.304;2024-02-26T09:55:05;94634.25;;;15.05;100.00
5500;BME280;2772;42.700;23.304;2024-02-26T09:57:32;94645.88;;;15.09;100.00
5500;BME280;2772;42.700;23.304;2024-02-26T09:59:59;94647.66;;;15.21;100.00
5500;BME280;2772;42.700;23.304;2024-02-26T10:02:30;94638.66;;;15.29;100.00
5500;BME280;2772;42.700;23.304;2024-02-26T10:04:59;94634.78;;;15.11;100.00
5500;BME280;2772;42.700;23.304;2024-02-26T10:07:30;94634.94;;;15.18;100.00
5500;BME280;2772;42.700;23.304;2024-02-26T10:09:58;94625.44;;;15.20;100.00
5500;BME280;2772;42.700;23.304;2024-02-26T10:12:26;94631.69;;;15.40;100.00
5500;BME280;2772;42.700;23.304;2024-02-26T10:14:53;94634.56;;;15.47;100.00
5500;BME280;2772;42.700;23.304;2024-02-26T10:17:20;94637.38;;;15.54;100.00
5500;BME280;2772;42.700;23.304;2024-02-26T10:19:47;94621.81;;;15.44;100.00
5500;BME280;2772;42.700;23.304;2024-02-26T10:22:15;94632.34;;;15.37;100.00
5500;BME280;2772;42.700;23.304;2024-02-26T10:24:41;94626.19;;;15.36;100.00
5500;BME280;2772;42.700;23.304;2024-02-26T10:27:08;94623.03;;;15.46;100.00
5500;BME280;2772;42.700;23.304;2024-02-26T10:29:37;94622.56;;;15.29;100.00
5500;BME280;2772;42.700;23.304;2024-02-26T10:32:05;94620.06;;;15.36;100.00
5500;BME280;2772;42.700;23.304;2024-02-26T10:34:32;94610.66;;;15.42;100.00
5500;BME280;2772;42.700;23.304;2024-02-26T10:37:01;94605.38;;;15.45;100.00
5500;BME280;2772;42.700;23.304;2024-02-26T10:39:29;94596.97;;;15.47;100.00
5500;BME280;2772;42.700;23.304;2024-02-26T10:41:56;94595.25;;;15.39;100.00
5500;BME280;2772;42.700;23.304;2024-02-26T10:44:22;94603.97;;;15.51;100.00
5500;BME280;2772;42.700;23.304;2024-02-26T10:46:49;94596.31;;;15.69;100.00
5500;BME280;2772;42.700;23.304;2024-02-26T10:49:16;94595.81;;;15.63;98.80
5500;BME280;2772;42.700;23.304;2024-02-26T10:51:50;94603.69;;;15.72;98.95
5500;BME280;2772;42.700;23.304;2024-02-26T10:54:19;94599.09;;;15.57;97.82
5500;BME280;2772;42.700;23.304;2024-02-26T10:56:49;94591.94;;;15.61;97.68
5500;BME280;2772;42.700;23.304;2024-02-26T10:59:17;94593.66;;;15.69;98.03
5500;BME280;2772;42.700;23.304;2024-02-26T11:01:47;94584.03;;;15.52;96.86
5500;BME280;2772;42.700;23.304;2024-02-26T11:04:15;94577.22;;;15.55;98.15
5500;BME280;2772;42.700;23.304;2024-02-26T11:06:42;94587.41;;;15.65;97.46
5500;BME280;2772;42.700;23.304;2024-02-26T11:09:11;94585.63;;;15.72;98.63
5500;BME280;2772;42.700;23.304;2024-02-26T11:11:39;94585.81;;;15.79;97.16
5500;BME280;2772;42.700;23.304;2024-02-26T11:14:08;94587.44;;;15.84;96.38
5500;BME280;2772;42.700;23.304;2024-02-26T11:16:37;94590.25;;;15.72;96.43
5500;BME280;2772;42.700;23.304;2024-02-26T11:19:06;94585.06;;;15.63;97.47
5500;BME280;2772;42.700;23.304;2024-02-26T11:21:35;94578.63;;;15.68;97.68
5500;BME280;2772;42.700;23.304;2024-02-26T11:24:07;94580.47;;;15.64;96.13
5500;BME280;2772;42.700;23.304;2024-02-26T11:26:38;94578.72;;;15.71;97.53
5500;BME280;2772;42.700;23.304;2024-02-26T11:29:09;94585.50;;;15.65;97.08
5500;BME280;2772;42.700;23.304;2024-02-26T11:31:37;94581.41;;;15.71;97.49
5500;BME280;2772;42.700;23.304;2024-02-26T11:34:06;94576.53;;;15.77;97.28
5500;BME280;2772;42.700;23.304;2024-02-26T11:36:34;94573.31;;;15.87;95.72
5500;BME280;2772;42.700;23.304;2024-02-26T11:39:01;94569.97;;;15.74;93.91
5500;BME280;2772;42.700;23.304;2024-02-26T11:41:28;94572.31;;;15.76;94.53
5500;BME280;2772;42.700;23.304;2024-02-26T11:43:58;94569.47;;;15.88;94.43
5500;BME280;2772;42.700;23.304;2024-02-26T11:46:28;94568.50;;;15.96;95.46
5500;BME280;2772;42.700;23.304;2024-02-26T11:48:58;94564.41;;;16.02;94.73
5500;BME280;2772;42.700;23.304;2024-02-26T11:51:25;94569.56;;;16.11;92.97
5500;BME280;2772;42.700;23.304;2024-02-26T11:53:52;94559.94;;;16.10;90.68
5500;BME280;2772;42.700;23.304;2024-02-26T11:56:23;94561.59;;;15.95;89.70
5500;BME280;2772;42.700;23.304;2024-02-26T11:58:57;94555.69;;;15.89;91.00
5500;BME280;2772;42.700;23.304;2024-02-26T12:01:41;94547.00;;;15.96;93.31
5500;BME280;2772;42.700;23.304;2024-02-26T12:04:12;94563.75;;;15.89;90.84
5500;BME280;2772;42.700;23.304;2024-02-26T12:06:45;94567.69;;;16.11;90.53
5500;BME280;2772;42.700;23.304;2024-02-26T12:09:12;94562.16;;;16.04;91.86
5500;BME280;2772;42.700;23.304;2024-02-26T12:11:40;94560.25;;;16.05;89.12
5500;BME280;2772;42.700;23.304;2024-02-26T12:14:09;94567.94;;;15.87;89.11
5500;BME280;2772;42.700;23.304;2024-02-26T12:16:37;94560.22;;;15.85;90.43
5500;BME280;2772;42.700;23.304;2024-02-26T12:19:09;94562.94;;;16.05;90.84
5500;BME280;2772;42.700;23.304;2024-02-26T12:21:37;94561.44;;;16.07;89.13
5500;BME280;2772;42.700;23.304;2024-02-26T12:24:13;94568.31;;;16.05;87.42
5500;BME280;2772;42.700;23.304;2024-02-26T12:26:41;94570.63;;;16.06;86.71
5500;BME280;2772;42.700;23.304;2024-02-26T12:29:08;94574.44;;;16.05;88.28
5500;BME280;2772;42.700;23.304;2024-02-26T12:31:36;94575.44;;;16.16;85.80
5500;BME280;2772;42.700;23.304;2024-02-26T12:34:04;94577.63;;;16.11;84.17
5500;BME280;2772;42.700;23.304;2024-02-26T12:36:33;94577.06;;;16.02;85.02
5500;BME280;2772;42.700;23.304;2024-02-26T12:39:01;94567.53;;;16.04;84.63
5500;BME280;2772;42.700;23.304;2024-02-26T12:41:31;94578.56;;;16.18;85.85
5500;BME280;2772;42.700;23.304;2024-02-26T12:43:58;94568.06;;;16.32;84.59
5500;BME280;2772;42.700;23.304;2024-02-26T12:46:25;94564.81;;;16.42;82.55
5500;BME280;2772;42.700;23.304;2024-02-26T12:48:55;94567.78;;;16.37;82.16
5500;BME280;2772;42.700;23.304;2024-02-26T12:51:23;94568.91;;;16.36;81.01
5500;BME280;2772;42.700;23.304;2024-02-26T12:53:52;94569.06;;;16.43;81.37
5500;BME280;2772;42.700;23.304;2024-02-26T12:56:21;94565.03;;;16.53;83.45
5500;BME280;2772;42.700;23.304;2024-02-26T12:58:49;94559.00;;;16.40;79.62
5500;BME280;2772;42.700;23.304;2024-02-26T13:01:18;94560.84;;;16.55;81.24
5500;BME280;2772;42.700;23.304;2024-02-26T13:03:46;94553.69;;;16.63;79.52